Searsmont, Maine
Current Conditions -  °F | °C
As of 11:15 AM on Thursday 29 Jan 2015 (Local Time) from KRKD Reporting Station
Clear Clear  
Wind Chill: 25°   Ceiling: Unl
Heat Index: 25°   Visibility: 10mi
Dew Point:   Wind: 3mph
Humidity: 46%   Direction: 10°N
Pressure: 30.29"   Gusts: NA
Location:  44.36°N, 69.2°W
Report Text: KRKD 291615Z AUTO 01003KT 10SM CLR M04/M14 A3029 RMK AO1
Loading
Personal Weather Stations






























Interactive Weather Map New forecast layout! Learn more

10-Day Weather Forecast

Advertisements
Track Severe Weather on mobile